Metar Flugplatz Niederstetten

ETHN 260620Z 25006KT 9999 FEW220 09/01 Q1028 BLU+BLU+



Temperatur Niederstetten
9 Grad Celsius

QNH Niederstetten
1028
==============================================================

TAF Niederstetten:

TAF ETHN 291027Z 2911/3002 24010KT 9999 NSW FEW240 TEMPO 2911/2916 26012G22KT 9999 NSW SCT035 BKN240



Alle Angaben ohne Gewähr